sensor_id;sensor_type;location;lat;lon;timestamp;P1;durP1;ratioP1;P2;durP2;ratioP2
28848;SDS011;15981;43.292;-2.888;2023-03-31T00:00:26;2.33;;;1.00;;
28848;SDS011;15981;43.292;-2.888;2023-03-31T00:02:52;2.70;;;0.90;;
28848;SDS011;15981;43.292;-2.888;2023-03-31T00:05:19;2.00;;;0.90;;
28848;SDS011;15981;43.292;-2.888;2023-03-31T00:07:46;1.60;;;1.00;;
28848;SDS011;15981;43.292;-2.888;2023-03-31T00:10:13;2.28;;;1.00;;
28848;SDS011;15981;43.292;-2.888;2023-03-31T00:12:39;3.08;;;1.08;;
28848;SDS011;15981;43.292;-2.888;2023-03-31T00:15:04;2.70;;;1.10;;
28848;SDS011;15981;43.292;-2.888;2023-03-31T00:17:30;2.78;;;1.15;;
28848;SDS011;15981;43.292;-2.888;2023-03-31T00:19:57;1.75;;;0.80;;
28848;SDS011;15981;43.292;-2.888;2023-03-31T00:22:25;4.07;;;1.40;;
28848;SDS011;15981;43.292;-2.888;2023-03-31T00:24:52;2.40;;;1.10;;
28848;SDS011;15981;43.292;-2.888;2023-03-31T00:27:18;2.50;;;1.10;;
28848;SDS011;15981;43.292;-2.888;2023-03-31T00:29:43;3.73;;;1.10;;
28848;SDS011;15981;43.292;-2.888;2023-03-31T00:32:10;1.73;;;1.10;;
28848;SDS011;15981;43.292;-2.888;2023-03-31T00:34:36;2.57;;;1.13;;
28848;SDS011;15981;43.292;-2.888;2023-03-31T00:37:02;1.83;;;1.10;;
28848;SDS011;15981;43.292;-2.888;2023-03-31T00:39:28;1.83;;;0.80;;
28848;SDS011;15981;43.292;-2.888;2023-03-31T00:41:57;2.80;;;1.23;;
28848;SDS011;15981;43.292;-2.888;2023-03-31T00:44:23;2.47;;;1.02;;
28848;SDS011;15981;43.292;-2.888;2023-03-31T00:49:32;1.70;;;1.10;;
28848;SDS011;15981;43.292;-2.888;2023-03-31T00:54:33;2.25;;;1.10;;
28848;SDS011;15981;43.292;-2.888;2023-03-31T00:57:00;3.72;;;1.20;;
28848;SDS011;15981;43.292;-2.888;2023-03-31T00:59:29;2.42;;;1.10;;
28848;SDS011;15981;43.292;-2.888;2023-03-31T01:01:55;2.03;;;1.60;;
28848;SDS011;15981;43.292;-2.888;2023-03-31T01:04:23;3.13;;;1.70;;
28848;SDS011;15981;43.292;-2.888;2023-03-31T01:06:55;3.08;;;1.80;;
28848;SDS011;15981;43.292;-2.888;2023-03-31T01:09:22;3.38;;;1.58;;
28848;SDS011;15981;43.292;-2.888;2023-03-31T01:11:49;3.70;;;1.60;;
28848;SDS011;15981;43.292;-2.888;2023-03-31T01:14:15;3.55;;;1.60;;
28848;SDS011;15981;43.292;-2.888;2023-03-31T01:16:40;2.50;;;1.30;;
28848;SDS011;15981;43.292;-2.888;2023-03-31T01:19:09;1.73;;;1.23;;
28848;SDS011;15981;43.292;-2.888;2023-03-31T01:24:10;4.15;;;1.75;;
28848;SDS011;15981;43.292;-2.888;2023-03-31T01:35:00;3.60;;;1.80;;
28848;SDS011;15981;43.292;-2.888;2023-03-31T01:43:15;2.77;;;1.57;;
28848;SDS011;15981;43.292;-2.888;2023-03-31T01:46:02;1.73;;;1.02;;
28848;SDS011;15981;43.292;-2.888;2023-03-31T01:51:32;1.40;;;1.00;;
28848;SDS011;15981;43.292;-2.888;2023-03-31T01:54:01;1.88;;;1.05;;
28848;SDS011;15981;43.292;-2.888;2023-03-31T01:56:29;1.50;;;1.40;;
28848;SDS011;15981;43.292;-2.888;2023-03-31T02:01:41;1.92;;;1.35;;
28848;SDS011;15981;43.292;-2.888;2023-03-31T02:04:09;2.47;;;1.50;;
28848;SDS011;15981;43.292;-2.888;2023-03-31T02:06:39;1.70;;;1.40;;
28848;SDS011;15981;43.292;-2.888;2023-03-31T02:09:08;2.58;;;1.40;;
28848;SDS011;15981;43.292;-2.888;2023-03-31T02:11:35;2.95;;;1.70;;
28848;SDS011;15981;43.292;-2.888;2023-03-31T02:14:02;3.87;;;1.60;;
28848;SDS011;15981;43.292;-2.888;2023-03-31T02:16:29;1.77;;;1.40;;
28848;SDS011;15981;43.292;-2.888;2023-03-31T02:18:57;1.23;;;1.00;;
28848;SDS011;15981;43.292;-2.888;2023-03-31T02:21:31;4.70;;;1.73;;
28848;SDS011;15981;43.292;-2.888;2023-03-31T02:23:58;2.03;;;1.10;;
28848;SDS011;15981;43.292;-2.888;2023-03-31T02:26:27;1.45;;;1.05;;
28848;SDS011;15981;43.292;-2.888;2023-03-31T02:28:54;2.47;;;1.30;;
28848;SDS011;15981;43.292;-2.888;2023-03-31T02:31:36;1.75;;;1.13;;
28848;SDS011;15981;43.292;-2.888;2023-03-31T02:34:03;1.67;;;1.03;;
28848;SDS011;15981;43.292;-2.888;2023-03-31T02:36:29;2.28;;;1.00;;
28848;SDS011;15981;43.292;-2.888;2023-03-31T02:38:56;2.65;;;1.38;;
28848;SDS011;15981;43.292;-2.888;2023-03-31T02:41:23;1.45;;;1.10;;
28848;SDS011;15981;43.292;-2.888;2023-03-31T02:43:49;1.25;;;0.98;;
28848;SDS011;15981;43.292;-2.888;2023-03-31T02:46:15;2.83;;;1.40;;
28848;SDS011;15981;43.292;-2.888;2023-03-31T02:48:42;3.13;;;1.37;;
28848;SDS011;15981;43.292;-2.888;2023-03-31T02:56:14;1.42;;;1.00;;
28848;SDS011;15981;43.292;-2.888;2023-03-31T03:01:34;1.73;;;1.33;;
28848;SDS011;15981;43.292;-2.888;2023-03-31T03:06:38;1.60;;;1.33;;
28848;SDS011;15981;43.292;-2.888;2023-03-31T03:16:56;2.75;;;1.17;;
28848;SDS011;15981;43.292;-2.888;2023-03-31T03:19:23;2.20;;;1.35;;
28848;SDS011;15981;43.292;-2.888;2023-03-31T03:21:49;2.63;;;1.40;;
28848;SDS011;15981;43.292;-2.888;2023-03-31T03:24:15;2.37;;;1.80;;
28848;SDS011;15981;43.292;-2.888;2023-03-31T03:26:43;1.95;;;1.30;;
28848;SDS011;15981;43.292;-2.888;2023-03-31T03:29:09;2.38;;;1.50;;
28848;SDS011;15981;43.292;-2.888;2023-03-31T03:31:37;2.45;;;1.67;;
28848;SDS011;15981;43.292;-2.888;2023-03-31T03:34:03;3.03;;;1.60;;
28848;SDS011;15981;43.292;-2.888;2023-03-31T03:36:29;2.60;;;1.70;;
28848;SDS011;15981;43.292;-2.888;2023-03-31T03:38:55;2.45;;;1.98;;
28848;SDS011;15981;43.292;-2.888;2023-03-31T03:41:21;2.07;;;1.77;;
28848;SDS011;15981;43.292;-2.888;2023-03-31T03:43:46;3.15;;;1.90;;
28848;SDS011;15981;43.292;-2.888;2023-03-31T03:46:12;2.90;;;1.60;;
28848;SDS011;15981;43.292;-2.888;2023-03-31T03:48:38;1.88;;;1.35;;
28848;SDS011;15981;43.292;-2.888;2023-03-31T03:51:03;1.83;;;1.63;;
28848;SDS011;15981;43.292;-2.888;2023-03-31T03:53:30;2.58;;;1.98;;
28848;SDS011;15981;43.292;-2.888;2023-03-31T03:55:56;2.72;;;1.63;;
28848;SDS011;15981;43.292;-2.888;2023-03-31T03:58:23;2.42;;;1.63;;
28848;SDS011;15981;43.292;-2.888;2023-03-31T04:00:49;2.33;;;1.60;;
28848;SDS011;15981;43.292;-2.888;2023-03-31T04:03:15;2.45;;;1.67;;
28848;SDS011;15981;43.292;-2.888;2023-03-31T04:05:41;2.15;;;1.60;;
28848;SDS011;15981;43.292;-2.888;2023-03-31T04:08:06;2.67;;;1.60;;
28848;SDS011;15981;43.292;-2.888;2023-03-31T04:10:33;2.67;;;1.43;;
28848;SDS011;15981;43.292;-2.888;2023-03-31T04:12:59;3.47;;;1.60;;
28848;SDS011;15981;43.292;-2.888;2023-03-31T04:15:25;3.00;;;1.57;;
28848;SDS011;15981;43.292;-2.888;2023-03-31T04:17:51;1.75;;;1.40;;
28848;SDS011;15981;43.292;-2.888;2023-03-31T04:20:19;2.50;;;1.67;;
28848;SDS011;15981;43.292;-2.888;2023-03-31T04:22:45;1.65;;;1.35;;
28848;SDS011;15981;43.292;-2.888;2023-03-31T04:25:15;1.90;;;1.33;;
28848;SDS011;15981;43.292;-2.888;2023-03-31T04:27:45;2.83;;;1.50;;
28848;SDS011;15981;43.292;-2.888;2023-03-31T04:30:15;2.20;;;1.30;;
28848;SDS011;15981;43.292;-2.888;2023-03-31T04:32:48;1.40;;;1.30;;
28848;SDS011;15981;43.292;-2.888;2023-03-31T04:35:15;2.35;;;2.00;;
28848;SDS011;15981;43.292;-2.888;2023-03-31T04:37:42;2.30;;;1.40;;
28848;SDS011;15981;43.292;-2.888;2023-03-31T04:40:08;2.72;;;1.70;;
28848;SDS011;15981;43.292;-2.888;2023-03-31T04:42:34;2.25;;;1.40;;
28848;SDS011;15981;43.292;-2.888;2023-03-31T04:45:00;2.33;;;1.60;;
28848;SDS011;15981;43.292;-2.888;2023-03-31T04:47:26;2.28;;;1.58;;
28848;SDS011;15981;43.292;-2.888;2023-03-31T04:49:52;1.40;;;1.30;;
28848;SDS011;15981;43.292;-2.888;2023-03-31T04:52:18;2.47;;;1.67;;
28848;SDS011;15981;43.292;-2.888;2023-03-31T04:54:43;2.40;;;1.42;;
28848;SDS011;15981;43.292;-2.888;2023-03-31T04:57:09;1.80;;;1.50;;
28848;SDS011;15981;43.292;-2.888;2023-03-31T04:59:35;1.55;;;1.30;;
28848;SDS011;15981;43.292;-2.888;2023-03-31T05:02:01;1.55;;;1.30;;
28848;SDS011;15981;43.292;-2.888;2023-03-31T05:04:27;1.63;;;1.38;;
28848;SDS011;15981;43.292;-2.888;2023-03-31T05:06:52;1.97;;;1.40;;
28848;SDS011;15981;43.292;-2.888;2023-03-31T05:09:18;2.35;;;1.42;;
28848;SDS011;15981;43.292;-2.888;2023-03-31T05:11:45;1.75;;;1.48;;
28848;SDS011;15981;43.292;-2.888;2023-03-31T05:14:11;1.55;;;1.30;;
28848;SDS011;15981;43.292;-2.888;2023-03-31T05:16:36;1.70;;;1.40;;
28848;SDS011;15981;43.292;-2.888;2023-03-31T05:19:02;1.67;;;1.30;;
28848;SDS011;15981;43.292;-2.888;2023-03-31T05:21:28;2.00;;;1.38;;
28848;SDS011;15981;43.292;-2.888;2023-03-31T05:23:55;1.80;;;1.40;;
28848;SDS011;15981;43.292;-2.888;2023-03-31T05:26:21;2.13;;;1.50;;
28848;SDS011;15981;43.292;-2.888;2023-03-31T05:28:50;1.90;;;1.20;;
28848;SDS011;15981;43.292;-2.888;2023-03-31T05:31:16;1.95;;;1.38;;
28848;SDS011;15981;43.292;-2.888;2023-03-31T05:33:42;1.95;;;1.40;;
28848;SDS011;15981;43.292;-2.888;2023-03-31T05:36:08;1.50;;;1.40;;
28848;SDS011;15981;43.292;-2.888;2023-03-31T05:38:34;1.40;;;1.30;;
28848;SDS011;15981;43.292;-2.888;2023-03-31T05:41:00;2.75;;;1.40;;
28848;SDS011;15981;43.292;-2.888;2023-03-31T05:43:26;1.73;;;1.33;;
28848;SDS011;15981;43.292;-2.888;2023-03-31T05:45:52;2.87;;;1.60;;
28848;SDS011;15981;43.292;-2.888;2023-03-31T05:48:18;2.30;;;1.85;;
28848;SDS011;15981;43.292;-2.888;2023-03-31T05:50:44;2.63;;;1.73;;
28848;SDS011;15981;43.292;-2.888;2023-03-31T05:53:09;2.33;;;1.55;;
28848;SDS011;15981;43.292;-2.888;2023-03-31T05:55:35;2.47;;;1.80;;
28848;SDS011;15981;43.292;-2.888;2023-03-31T05:58:01;2.13;;;1.58;;
28848;SDS011;15981;43.292;-2.888;2023-03-31T06:00:27;2.17;;;1.58;;
28848;SDS011;15981;43.292;-2.888;2023-03-31T06:02:53;2.50;;;1.50;;
28848;SDS011;15981;43.292;-2.888;2023-03-31T06:05:19;4.85;;;1.80;;
28848;SDS011;15981;43.292;-2.888;2023-03-31T06:07:44;3.30;;;1.90;;
28848;SDS011;15981;43.292;-2.888;2023-03-31T06:10:10;2.17;;;1.53;;
28848;SDS011;15981;43.292;-2.888;2023-03-31T06:12:36;1.70;;;1.30;;
28848;SDS011;15981;43.292;-2.888;2023-03-31T06:15:02;3.30;;;1.63;;
28848;SDS011;15981;43.292;-2.888;2023-03-31T06:17:28;2.53;;;1.70;;
28848;SDS011;15981;43.292;-2.888;2023-03-31T06:19:53;4.50;;;2.00;;
28848;SDS011;15981;43.292;-2.888;2023-03-31T06:22:20;4.28;;;2.55;;
28848;SDS011;15981;43.292;-2.888;2023-03-31T06:24:46;3.75;;;2.78;;
28848;SDS011;15981;43.292;-2.888;2023-03-31T06:27:11;5.53;;;3.00;;
28848;SDS011;15981;43.292;-2.888;2023-03-31T06:29:37;6.22;;;2.85;;
28848;SDS011;15981;43.292;-2.888;2023-03-31T06:32:03;8.68;;;3.90;;
28848;SDS011;15981;43.292;-2.888;2023-03-31T06:34:29;12.30;;;4.35;;
28848;SDS011;15981;43.292;-2.888;2023-03-31T06:36:55;10.20;;;3.30;;
28848;SDS011;15981;43.292;-2.888;2023-03-31T06:39:21;8.13;;;3.33;;
28848;SDS011;15981;43.292;-2.888;2023-03-31T06:41:46;8.18;;;4.07;;
28848;SDS011;15981;43.292;-2.888;2023-03-31T06:44:12;9.80;;;4.10;;
28848;SDS011;15981;43.292;-2.888;2023-03-31T06:46:41;12.07;;;5.72;;
28848;SDS011;15981;43.292;-2.888;2023-03-31T06:49:07;13.13;;;6.22;;
28848;SDS011;15981;43.292;-2.888;2023-03-31T06:51:33;13.03;;;6.20;;
28848;SDS011;15981;43.292;-2.888;2023-03-31T06:53:58;17.27;;;7.63;;
28848;SDS011;15981;43.292;-2.888;2023-03-31T06:56:24;18.55;;;8.07;;
28848;SDS011;15981;43.292;-2.888;2023-03-31T06:58:51;15.30;;;6.97;;
28848;SDS011;15981;43.292;-2.888;2023-03-31T07:01:17;12.53;;;6.47;;
28848;SDS011;15981;43.292;-2.888;2023-03-31T07:03:43;14.95;;;6.10;;
28848;SDS011;15981;43.292;-2.888;2023-03-31T07:06:08;14.37;;;6.50;;
28848;SDS011;15981;43.292;-2.888;2023-03-31T07:08:34;13.43;;;5.40;;
28848;SDS011;15981;43.292;-2.888;2023-03-31T07:11:00;10.40;;;5.53;;
28848;SDS011;15981;43.292;-2.888;2023-03-31T07:13:27;15.23;;;5.60;;
28848;SDS011;15981;43.292;-2.888;2023-03-31T07:15:53;11.38;;;5.00;;
28848;SDS011;15981;43.292;-2.888;2023-03-31T07:18:19;14.90;;;5.22;;
28848;SDS011;15981;43.292;-2.888;2023-03-31T07:20:48;11.95;;;4.88;;
28848;SDS011;15981;43.292;-2.888;2023-03-31T07:23:15;12.15;;;4.70;;
28848;SDS011;15981;43.292;-2.888;2023-03-31T07:25:40;14.23;;;5.10;;
28848;SDS011;15981;43.292;-2.888;2023-03-31T07:28:06;14.65;;;5.68;;
28848;SDS011;15981;43.292;-2.888;2023-03-31T07:30:32;15.50;;;5.23;;
28848;SDS011;15981;43.292;-2.888;2023-03-31T07:32:58;14.63;;;5.13;;
28848;SDS011;15981;43.292;-2.888;2023-03-31T07:35:24;12.15;;;5.10;;
28848;SDS011;15981;43.292;-2.888;2023-03-31T07:37:50;11.60;;;4.47;;
28848;SDS011;15981;43.292;-2.888;2023-03-31T07:40:20;11.65;;;4.80;;
28848;SDS011;15981;43.292;-2.888;2023-03-31T07:42:47;11.38;;;4.63;;
28848;SDS011;15981;43.292;-2.888;2023-03-31T07:45:13;14.45;;;4.78;;
28848;SDS011;15981;43.292;-2.888;2023-03-31T07:47:39;14.57;;;4.72;;
28848;SDS011;15981;43.292;-2.888;2023-03-31T07:50:06;12.80;;;4.18;;
28848;SDS011;15981;43.292;-2.888;2023-03-31T07:52:32;13.75;;;4.07;;
28848;SDS011;15981;43.292;-2.888;2023-03-31T07:54:58;13.57;;;4.63;;
28848;SDS011;15981;43.292;-2.888;2023-03-31T07:57:24;12.52;;;4.78;;
28848;SDS011;15981;43.292;-2.888;2023-03-31T07:59:50;12.60;;;4.22;;
28848;SDS011;15981;43.292;-2.888;2023-03-31T08:02:16;12.87;;;4.40;;
28848;SDS011;15981;43.292;-2.888;2023-03-31T08:04:45;10.98;;;4.32;;
28848;SDS011;15981;43.292;-2.888;2023-03-31T08:07:11;12.15;;;4.25;;
28848;SDS011;15981;43.292;-2.888;2023-03-31T08:09:38;13.02;;;4.72;;
28848;SDS011;15981;43.292;-2.888;2023-03-31T08:12:04;11.15;;;4.40;;
28848;SDS011;15981;43.292;-2.888;2023-03-31T08:14:30;12.13;;;4.15;;
28848;SDS011;15981;43.292;-2.888;2023-03-31T08:16:56;11.37;;;4.43;;
28848;SDS011;15981;43.292;-2.888;2023-03-31T08:19:22;10.30;;;4.25;;
28848;SDS011;15981;43.292;-2.888;2023-03-31T08:21:48;11.35;;;3.92;;
28848;SDS011;15981;43.292;-2.888;2023-03-31T08:24:15;9.00;;;3.67;;
28848;SDS011;15981;43.292;-2.888;2023-03-31T08:26:41;11.13;;;3.83;;
28848;SDS011;15981;43.292;-2.888;2023-03-31T08:29:07;12.43;;;4.68;;
28848;SDS011;15981;43.292;-2.888;2023-03-31T08:31:32;14.13;;;4.53;;
28848;SDS011;15981;43.292;-2.888;2023-03-31T08:33:58;9.73;;;3.92;;
28848;SDS011;15981;43.292;-2.888;2023-03-31T08:36:24;13.10;;;4.20;;
28848;SDS011;15981;43.292;-2.888;2023-03-31T08:38:53;11.40;;;4.50;;
28848;SDS011;15981;43.292;-2.888;2023-03-31T08:41:32;11.20;;;3.30;;
28848;SDS011;15981;43.292;-2.888;2023-03-31T08:44:02;11.98;;;4.20;;
28848;SDS011;15981;43.292;-2.888;2023-03-31T08:46:29;9.73;;;3.90;;
28848;SDS011;15981;43.292;-2.888;2023-03-31T08:49:00;12.20;;;3.80;;
28848;SDS011;15981;43.292;-2.888;2023-03-31T08:51:47;12.35;;;3.88;;
28848;SDS011;15981;43.292;-2.888;2023-03-31T08:54:15;10.95;;;3.97;;
28848;SDS011;15981;43.292;-2.888;2023-03-31T08:56:43;11.43;;;3.73;;
28848;SDS011;15981;43.292;-2.888;2023-03-31T08:59:27;12.23;;;4.30;;
28848;SDS011;15981;43.292;-2.888;2023-03-31T09:07:06;13.73;;;4.15;;
28848;SDS011;15981;43.292;-2.888;2023-03-31T09:12:12;10.88;;;4.50;;
28848;SDS011;15981;43.292;-2.888;2023-03-31T09:14:59;15.10;;;5.72;;
28848;SDS011;15981;43.292;-2.888;2023-03-31T09:19:53;16.97;;;4.93;;
28848;SDS011;15981;43.292;-2.888;2023-03-31T09:22:28;13.65;;;4.85;;
28848;SDS011;15981;43.292;-2.888;2023-03-31T09:25:15;13.37;;;4.97;;
28848;SDS011;15981;43.292;-2.888;2023-03-31T09:27:43;14.70;;;5.07;;
28848;SDS011;15981;43.292;-2.888;2023-03-31T09:30:11;14.32;;;4.95;;
28848;SDS011;15981;43.292;-2.888;2023-03-31T09:32:40;11.88;;;5.53;;
28848;SDS011;15981;43.292;-2.888;2023-03-31T09:35:19;11.70;;;4.55;;
28848;SDS011;15981;43.292;-2.888;2023-03-31T09:37:49;11.23;;;4.43;;
28848;SDS011;15981;43.292;-2.888;2023-03-31T09:40:16;12.15;;;5.05;;
28848;SDS011;15981;43.292;-2.888;2023-03-31T09:42:43;13.47;;;5.50;;
28848;SDS011;15981;43.292;-2.888;2023-03-31T09:45:15;13.88;;;5.80;;
28848;SDS011;15981;43.292;-2.888;2023-03-31T09:47:42;12.13;;;5.35;;
28848;SDS011;15981;43.292;-2.888;2023-03-31T09:50:09;13.45;;;5.90;;
28848;SDS011;15981;43.292;-2.888;2023-03-31T09:52:56;13.13;;;5.45;;
28848;SDS011;15981;43.292;-2.888;2023-03-31T09:55:28;12.38;;;5.95;;
28848;SDS011;15981;43.292;-2.888;2023-03-31T09:57:59;11.55;;;5.13;;
28848;SDS011;15981;43.292;-2.888;2023-03-31T10:00:29;12.45;;;6.38;;
28848;SDS011;15981;43.292;-2.888;2023-03-31T10:02:56;10.70;;;5.93;;
28848;SDS011;15981;43.292;-2.888;2023-03-31T10:07:54;12.63;;;6.53;;
28848;SDS011;15981;43.292;-2.888;2023-03-31T10:10:43;12.95;;;6.30;;
28848;SDS011;15981;43.292;-2.888;2023-03-31T10:13:09;13.93;;;6.63;;
28848;SDS011;15981;43.292;-2.888;2023-03-31T10:15:38;11.73;;;6.75;;
28848;SDS011;15981;43.292;-2.888;2023-03-31T10:18:04;15.10;;;6.00;;
28848;SDS011;15981;43.292;-2.888;2023-03-31T10:20:31;12.73;;;5.82;;
28848;SDS011;15981;43.292;-2.888;2023-03-31T10:25:42;12.75;;;6.75;;
28848;SDS011;15981;43.292;-2.888;2023-03-31T10:28:10;10.95;;;5.60;;
28848;SDS011;15981;43.292;-2.888;2023-03-31T10:30:37;12.10;;;6.43;;
28848;SDS011;15981;43.292;-2.888;2023-03-31T10:33:12;15.45;;;6.82;;
28848;SDS011;15981;43.292;-2.888;2023-03-31T10:35:39;12.67;;;6.50;;
28848;SDS011;15981;43.292;-2.888;2023-03-31T10:38:06;14.02;;;6.65;;
28848;SDS011;15981;43.292;-2.888;2023-03-31T10:40:35;14.20;;;6.80;;
28848;SDS011;15981;43.292;-2.888;2023-03-31T10:43:14;13.13;;;6.43;;
28848;SDS011;15981;43.292;-2.888;2023-03-31T10:45:46;15.63;;;6.35;;
28848;SDS011;15981;43.292;-2.888;2023-03-31T10:48:16;13.63;;;6.40;;
28848;SDS011;15981;43.292;-2.888;2023-03-31T10:50:42;13.18;;;6.20;;
28848;SDS011;15981;43.292;-2.888;2023-03-31T10:53:12;12.48;;;6.53;;
28848;SDS011;15981;43.292;-2.888;2023-03-31T10:56:25;13.25;;;5.93;;
28848;SDS011;15981;43.292;-2.888;2023-03-31T11:06:12;11.75;;;5.75;;
28848;SDS011;15981;43.292;-2.888;2023-03-31T11:08:44;13.35;;;5.82;;
28848;SDS011;15981;43.292;-2.888;2023-03-31T11:11:25;11.95;;;5.70;;
28848;SDS011;15981;43.292;-2.888;2023-03-31T11:16:30;14.02;;;6.07;;
28848;SDS011;15981;43.292;-2.888;2023-03-31T11:21:45;14.75;;;6.50;;
28848;SDS011;15981;43.292;-2.888;2023-03-31T11:29:50;13.18;;;5.85;;
28848;SDS011;15981;43.292;-2.888;2023-03-31T11:43:03;14.73;;;5.85;;
28848;SDS011;15981;43.292;-2.888;2023-03-31T11:45:32;16.13;;;6.90;;
28848;SDS011;15981;43.292;-2.888;2023-03-31T11:48:00;11.68;;;6.00;;
28848;SDS011;15981;43.292;-2.888;2023-03-31T11:50:29;13.40;;;5.90;;
28848;SDS011;15981;43.292;-2.888;2023-03-31T11:52:57;11.37;;;5.50;;
28848;SDS011;15981;43.292;-2.888;2023-03-31T11:55:26;12.38;;;5.45;;
28848;SDS011;15981;43.292;-2.888;2023-03-31T11:57:57;15.85;;;5.22;;
28848;SDS011;15981;43.292;-2.888;2023-03-31T12:00:29;12.38;;;5.28;;
28848;SDS011;15981;43.292;-2.888;2023-03-31T12:05:23;12.23;;;5.20;;
28848;SDS011;15981;43.292;-2.888;2023-03-31T12:07:53;12.05;;;5.30;;
28848;SDS011;15981;43.292;-2.888;2023-03-31T12:10:22;10.25;;;4.60;;
28848;SDS011;15981;43.292;-2.888;2023-03-31T12:15:41;12.25;;;5.07;;
28848;SDS011;15981;43.292;-2.888;2023-03-31T12:18:12;11.05;;;5.32;;
28848;SDS011;15981;43.292;-2.888;2023-03-31T12:20:40;11.10;;;4.82;;
28848;SDS011;15981;43.292;-2.888;2023-03-31T12:23:41;9.27;;;4.70;;
28848;SDS011;15981;43.292;-2.888;2023-03-31T12:26:34;11.30;;;4.57;;
28848;SDS011;15981;43.292;-2.888;2023-03-31T12:28:52;11.95;;;4.68;;
28848;SDS011;15981;43.292;-2.888;2023-03-31T12:31:22;10.98;;;4.70;;
28848;SDS011;15981;43.292;-2.888;2023-03-31T12:33:52;9.90;;;4.47;;
28848;SDS011;15981;43.292;-2.888;2023-03-31T12:36:28;10.90;;;4.90;;
28848;SDS011;15981;43.292;-2.888;2023-03-31T12:41:34;11.00;;;4.50;;
28848;SDS011;15981;43.292;-2.888;2023-03-31T12:46:50;14.65;;;5.15;;
28848;SDS011;15981;43.292;-2.888;2023-03-31T12:52:01;10.52;;;4.57;;
28848;SDS011;15981;43.292;-2.888;2023-03-31T12:57:34;9.90;;;4.32;;
28848;SDS011;15981;43.292;-2.888;2023-03-31T13:02:45;10.10;;;4.20;;
28848;SDS011;15981;43.292;-2.888;2023-03-31T13:07:55;10.45;;;4.13;;
28848;SDS011;15981;43.292;-2.888;2023-03-31T13:10:25;7.23;;;3.50;;
28848;SDS011;15981;43.292;-2.888;2023-03-31T13:12:59;8.90;;;3.88;;
28848;SDS011;15981;43.292;-2.888;2023-03-31T13:15:26;10.75;;;4.15;;
28848;SDS011;15981;43.292;-2.888;2023-03-31T13:17:56;9.63;;;4.05;;
28848;SDS011;15981;43.292;-2.888;2023-03-31T13:22:48;9.68;;;3.72;;
28848;SDS011;15981;43.292;-2.888;2023-03-31T13:33:04;8.70;;;3.73;;
28848;SDS011;15981;43.292;-2.888;2023-03-31T13:35:34;11.55;;;4.47;;
28848;SDS011;15981;43.292;-2.888;2023-03-31T13:40:44;12.02;;;4.00;;
28848;SDS011;15981;43.292;-2.888;2023-03-31T13:50:55;10.10;;;3.42;;
28848;SDS011;15981;43.292;-2.888;2023-03-31T13:58:28;9.10;;;3.22;;
28848;SDS011;15981;43.292;-2.888;2023-03-31T14:05:56;7.23;;;3.50;;
28848;SDS011;15981;43.292;-2.888;2023-03-31T14:08:30;8.05;;;3.28;;
28848;SDS011;15981;43.292;-2.888;2023-03-31T14:11:43;8.02;;;3.70;;
28848;SDS011;15981;43.292;-2.888;2023-03-31T14:13:59;20.27;;;7.05;;
28848;SDS011;15981;43.292;-2.888;2023-03-31T14:16:26;36.83;;;11.45;;
28848;SDS011;15981;43.292;-2.888;2023-03-31T14:18:56;49.85;;;15.88;;
28848;SDS011;15981;43.292;-2.888;2023-03-31T14:21:29;48.47;;;15.52;;
28848;SDS011;15981;43.292;-2.888;2023-03-31T14:24:07;38.83;;;12.23;;
28848;SDS011;15981;43.292;-2.888;2023-03-31T14:31:37;20.50;;;7.47;;
28848;SDS011;15981;43.292;-2.888;2023-03-31T14:34:19;19.95;;;7.03;;
28848;SDS011;15981;43.292;-2.888;2023-03-31T14:39:36;17.58;;;5.30;;
28848;SDS011;15981;43.292;-2.888;2023-03-31T14:42:09;14.93;;;5.65;;
28848;SDS011;15981;43.292;-2.888;2023-03-31T14:44:36;14.65;;;5.20;;
28848;SDS011;15981;43.292;-2.888;2023-03-31T14:47:02;14.00;;;5.03;;
28848;SDS011;15981;43.292;-2.888;2023-03-31T14:49:37;11.55;;;4.65;;
28848;SDS011;15981;43.292;-2.888;2023-03-31T14:54:42;12.07;;;4.03;;
28848;SDS011;15981;43.292;-2.888;2023-03-31T14:57:08;11.10;;;3.33;;
28848;SDS011;15981;43.292;-2.888;2023-03-31T14:59:35;10.48;;;4.03;;
28848;SDS011;15981;43.292;-2.888;2023-03-31T15:02:03;11.63;;;3.88;;
28848;SDS011;15981;43.292;-2.888;2023-03-31T15:04:30;10.25;;;3.70;;
28848;SDS011;15981;43.292;-2.888;2023-03-31T15:06:58;10.07;;;3.65;;
28848;SDS011;15981;43.292;-2.888;2023-03-31T15:09:33;10.27;;;3.67;;
28848;SDS011;15981;43.292;-2.888;2023-03-31T15:12:04;11.85;;;3.28;;
28848;SDS011;15981;43.292;-2.888;2023-03-31T15:14:32;10.60;;;3.40;;
28848;SDS011;15981;43.292;-2.888;2023-03-31T15:17:01;10.50;;;3.72;;
28848;SDS011;15981;43.292;-2.888;2023-03-31T15:19:32;8.93;;;3.33;;
28848;SDS011;15981;43.292;-2.888;2023-03-31T15:22:08;8.15;;;2.83;;
28848;SDS011;15981;43.292;-2.888;2023-03-31T15:24:35;7.65;;;2.90;;
28848;SDS011;15981;43.292;-2.888;2023-03-31T15:29:42;9.90;;;3.03;;
28848;SDS011;15981;43.292;-2.888;2023-03-31T15:32:17;7.25;;;2.75;;
28848;SDS011;15981;43.292;-2.888;2023-03-31T15:34:49;9.55;;;3.08;;
28848;SDS011;15981;43.292;-2.888;2023-03-31T15:37:15;9.43;;;2.70;;
28848;SDS011;15981;43.292;-2.888;2023-03-31T15:39:43;8.50;;;3.20;;
28848;SDS011;15981;43.292;-2.888;2023-03-31T15:42:09;6.25;;;2.70;;
28848;SDS011;15981;43.292;-2.888;2023-03-31T15:47:11;8.90;;;3.03;;
28848;SDS011;15981;43.292;-2.888;2023-03-31T15:49:45;9.90;;;2.83;;
28848;SDS011;15981;43.292;-2.888;2023-03-31T15:57:50;8.43;;;3.00;;
28848;SDS011;15981;43.292;-2.888;2023-03-31T16:03:02;11.90;;;2.90;;
28848;SDS011;15981;43.292;-2.888;2023-03-31T16:08:01;7.70;;;2.50;;
28848;SDS011;15981;43.292;-2.888;2023-03-31T16:10:27;8.88;;;3.08;;
28848;SDS011;15981;43.292;-2.888;2023-03-31T16:12:56;7.78;;;2.78;;
28848;SDS011;15981;43.292;-2.888;2023-03-31T16:15:30;11.15;;;3.03;;
28848;SDS011;15981;43.292;-2.888;2023-03-31T16:18:40;8.07;;;2.67;;
28848;SDS011;15981;43.292;-2.888;2023-03-31T16:20:51;8.40;;;2.60;;
28848;SDS011;15981;43.292;-2.888;2023-03-31T16:23:18;8.82;;;3.35;;
28848;SDS011;15981;43.292;-2.888;2023-03-31T16:25:45;13.60;;;3.15;;
28848;SDS011;15981;43.292;-2.888;2023-03-31T16:28:15;8.73;;;2.83;;
28848;SDS011;15981;43.292;-2.888;2023-03-31T16:30:43;11.97;;;3.37;;
28848;SDS011;15981;43.292;-2.888;2023-03-31T16:35:35;7.90;;;2.70;;
28848;SDS011;15981;43.292;-2.888;2023-03-31T16:38:02;7.57;;;2.85;;
28848;SDS011;15981;43.292;-2.888;2023-03-31T16:40:29;6.95;;;2.90;;
28848;SDS011;15981;43.292;-2.888;2023-03-31T16:45:44;10.55;;;3.10;;
28848;SDS011;15981;43.292;-2.888;2023-03-31T16:48:11;8.43;;;2.83;;
28848;SDS011;15981;43.292;-2.888;2023-03-31T16:50:37;8.07;;;3.47;;
28848;SDS011;15981;43.292;-2.888;2023-03-31T16:53:03;6.10;;;2.37;;
28848;SDS011;15981;43.292;-2.888;2023-03-31T16:55:29;12.88;;;3.03;;
28848;SDS011;15981;43.292;-2.888;2023-03-31T16:57:56;7.78;;;2.30;;
28848;SDS011;15981;43.292;-2.888;2023-03-31T17:00:23;7.88;;;2.85;;
28848;SDS011;15981;43.292;-2.888;2023-03-31T17:02:49;9.70;;;2.50;;
28848;SDS011;15981;43.292;-2.888;2023-03-31T17:05:15;9.45;;;3.10;;
28848;SDS011;15981;43.292;-2.888;2023-03-31T17:07:41;11.13;;;3.27;;
28848;SDS011;15981;43.292;-2.888;2023-03-31T17:10:07;9.15;;;3.00;;
28848;SDS011;15981;43.292;-2.888;2023-03-31T17:12:33;12.00;;;3.05;;
28848;SDS011;15981;43.292;-2.888;2023-03-31T17:14:59;11.43;;;3.03;;
28848;SDS011;15981;43.292;-2.888;2023-03-31T20:03:25;10.93;;;2.72;;
28848;SDS011;15981;43.292;-2.888;2023-03-31T20:06:02;9.05;;;2.92;;
28848;SDS011;15981;43.292;-2.888;2023-03-31T20:08:28;8.55;;;2.00;;
28848;SDS011;15981;43.292;-2.888;2023-03-31T20:10:57;5.00;;;2.53;;
28848;SDS011;15981;43.292;-2.888;2023-03-31T20:13:23;6.85;;;2.47;;
28848;SDS011;15981;43.292;-2.888;2023-03-31T20:15:56;5.07;;;1.85;;